Beverley, Western Australia

1:55 AM AWST on July 30, 2016 (GMT +0800)
Valley | | Change Station

Elev 600 ft 31.90 °S, 116.77 °E | Updated 5 seconds ago

Overcast
Overcast
66.9 °F
Feels Like 66.9 °F
N
8.1
Wind Variable Wind from WSW
Gusts 9.8 mph

Today
High -- | Low -- °F
--% Chance of Precip.
Yesterday
High -- | Low -- °F
Precip. -- in
Pressure 29.98 in
Visibility 5.6 miles
Clouds Scattered Clouds 2000 ft
Mostly Cloudy 2700 ft
Overcast 4300 ft
Dew Point 61 °F
Humidity 81%
Rainfall 0.00 in
Snow Depth Not available.
7:02 AM 5:34 PM
Waning Crescent, 20% visible
SPECI YPEA 291734Z AUTO 25010KT 9000 // SCT020 BKN027 OVC043 16/14 Q1015
Pressure 29.98 in
Visibility 5.6 miles
Clouds Scattered Clouds 2000 ft
Mostly Cloudy 2700 ft
Overcast 4300 ft
Dew Point 61 °F
Humidity 81%
Rainfall 0.00 in
Snow Depth Not available.
7:02 AM 5:34 PM
Waning Crescent, 20% visible
SPECI YPEA 291734Z AUTO 25010KT 9000 // SCT020 BKN027 OVC043 16/14 Q1015

10-Day Weather Forecast

Almanac

Astronomy

Jul. 30, 2016 Rise Set
Actual Time
Civil Twilight
Nautical Twilight
Astronomical Twilight
Moon
Length of Visible Light
Length of Day
Tomorrow will be .
, % of the Moon is Illuminated

Today's Extremes

Country Highs Country Lows

Community

WunderPhotos

Upload Photos

1,928,382 photos uploaded!

WunderBlog® & News

Nearby

Air Quality

  Air Quality AQ Index Pollutant
Not available.

Snow Depth

Station Depth Elevation

Earthquake Activity

City Distance Mag. Time & Date
Minimum magnitude displayed is 2.5.

Coastal Water Temperatures

Place Temperature

Stations

Nearby Weather Stations

Station Location Temp. Windchill Dew Point Humidity Wind Precip. Elev Updated Type